Nimbus Weather Services

Informe meteorológico para Carrasco, Uruguay. El informe se hizo hace un momento, a las 22:00 UTC. El viento soplaba a una velocidad de 5.1 m/s (11.5 millas por hora) del este-sureste (120°). La temperatura era 24 °C (75 °F), con un punto de rocío de 21 °C (70 °F). La sensación térmica era de 24 °C (75 °F). La presión atmosférica era 1009 hPa (29.80 inHg). Había una humedad relativa del 83.3%. Cielo: algunas nubes a una altitud de 518 metros (1700 pies) y nubosidad discontinua a una altitud de 2438 metros (8000 pies). Cielo nublado a partir de los 6096 metros (20000 pies) En aquel momento la visibilidad global era mayor de 10 kilómetros (6.2 millas).

La clave METAR es: SUMU 212200Z 12010KT 9999 FEW017 BKN080 OVC200 24/21 Q1009 NOSIG

Consulta realizada el Martes 21 de Enero de 2020 18:56. Tiempo usado para generar esta pagina:12,823 ms.